createdAt,value
2018-09-27T00:00:51.893Z,3.33
2018-09-27T00:03:18.894Z,3.20
2018-09-27T00:05:45.923Z,3.50
2018-09-27T00:08:12.893Z,3.47
2018-09-27T00:10:39.889Z,3.50
2018-09-27T00:13:06.858Z,3.60
2018-09-27T00:15:33.846Z,3.30
2018-09-27T00:18:00.845Z,3.80
2018-09-27T00:20:27.800Z,4.00
2018-09-27T00:22:54.767Z,3.37
2018-09-27T00:25:21.754Z,3.30
2018-09-27T00:27:48.728Z,3.30
2018-09-27T00:30:15.675Z,3.20
2018-09-27T00:32:42.650Z,3.00
2018-09-27T00:35:09.630Z,3.20
2018-09-27T00:37:36.615Z,3.50
2018-09-27T00:40:03.825Z,3.20
2018-09-27T00:42:30.812Z,2.85
2018-09-27T00:44:57.773Z,3.17
2018-09-27T00:47:24.764Z,3.62
2018-09-27T00:49:51.721Z,3.42
2018-09-27T00:52:18.688Z,3.30
2018-09-27T00:54:45.686Z,3.30
2018-09-27T00:57:13.160Z,3.02
2018-09-27T00:59:40.125Z,3.17
2018-09-27T01:02:07.102Z,3.50
2018-09-27T01:04:34.068Z,3.17
2018-09-27T01:07:01.046Z,3.20
2018-09-27T01:09:28.022Z,3.37
2018-09-27T01:11:54.986Z,3.17
2018-09-27T01:14:21.955Z,3.10
2018-09-27T01:16:49.055Z,3.47
2018-09-27T01:19:16.153Z,3.20
2018-09-27T01:21:43.148Z,3.20
2018-09-27T01:24:10.145Z,3.50
2018-09-27T01:26:37.108Z,3.55
2018-09-27T01:29:04.131Z,3.43
2018-09-27T01:31:31.143Z,3.47
2018-09-27T01:33:58.128Z,3.30
2018-09-27T01:36:25.120Z,3.20
2018-09-27T01:38:52.141Z,3.15
2018-09-27T01:41:19.149Z,3.27
2018-09-27T01:43:46.107Z,3.00
2018-09-27T01:46:13.119Z,3.05
2018-09-27T01:48:40.229Z,3.17
2018-09-27T01:51:07.198Z,3.37
2018-09-27T01:53:34.207Z,3.33
2018-09-27T01:56:01.249Z,3.45
2018-09-27T01:58:28.561Z,3.10
2018-09-27T02:00:55.595Z,3.12
2018-09-27T02:03:22.550Z,3.17
2018-09-27T02:05:49.561Z,2.87
2018-09-27T02:08:16.560Z,3.20
2018-09-27T02:10:43.547Z,3.00
2018-09-27T02:13:10.560Z,3.08
2018-09-27T02:15:37.667Z,3.33
2018-09-27T02:18:04.693Z,3.50
2018-09-27T02:20:31.632Z,3.60
2018-09-27T02:22:58.606Z,3.00
2018-09-27T02:25:25.585Z,3.23
2018-09-27T02:27:52.612Z,3.20
2018-09-27T02:30:19.623Z,3.42
2018-09-27T02:32:46.606Z,3.20
2018-09-27T02:35:14.527Z,3.00
2018-09-27T02:37:41.512Z,3.05
2018-09-27T02:40:29.858Z,3.40
2018-09-27T02:42:56.846Z,3.30
2018-09-27T02:45:23.801Z,3.20
2018-09-27T02:47:50.770Z,3.22
2018-09-27T02:50:17.738Z,3.12
2018-09-27T02:52:44.902Z,3.62
2018-09-27T02:55:11.926Z,3.45
2018-09-27T02:57:39.262Z,3.20
2018-09-27T03:00:06.662Z,3.30
2018-09-27T03:02:33.691Z,3.40
2018-09-27T03:05:00.614Z,3.60
2018-09-27T03:07:27.578Z,3.83
2018-09-27T03:09:54.537Z,4.10
2018-09-27T03:12:21.505Z,3.77
2018-09-27T03:14:48.469Z,3.85
2018-09-27T03:17:15.416Z,3.83
2018-09-27T03:19:42.372Z,4.00
2018-09-27T03:22:09.321Z,4.10
2018-09-27T03:24:36.270Z,3.65
2018-09-27T03:27:03.260Z,3.80
2018-09-27T03:29:30.226Z,3.70
2018-09-27T03:31:57.215Z,3.40
2018-09-27T03:34:24.214Z,3.80
2018-09-27T03:36:51.154Z,3.52
2018-09-27T03:39:18.132Z,3.80
2018-09-27T03:41:45.081Z,3.75
2018-09-27T03:44:12.058Z,4.00
2018-09-27T03:46:39.027Z,3.60
2018-09-27T03:49:05.981Z,3.43
2018-09-27T03:51:32.946Z,3.52
2018-09-27T03:53:59.913Z,3.70
2018-09-27T03:56:29.178Z,3.33
2018-09-27T03:58:57.227Z,3.27
2018-09-27T04:01:24.539Z,3.20
2018-09-27T04:03:51.497Z,3.08
2018-09-27T04:06:18.449Z,3.42
2018-09-27T04:08:45.403Z,3.22
2018-09-27T04:11:12.388Z,3.52
2018-09-27T04:13:39.339Z,3.67
2018-09-27T04:16:06.318Z,3.40
2018-09-27T04:18:33.285Z,3.60
2018-09-27T04:21:00.237Z,3.60
2018-09-27T04:23:27.188Z,3.70
2018-09-27T04:25:54.146Z,3.58
2018-09-27T04:28:21.614Z,3.77
2018-09-27T04:30:48.581Z,3.55
2018-09-27T04:33:15.560Z,3.90
2018-09-27T04:35:42.526Z,3.90
2018-09-27T04:38:09.509Z,4.20
2018-09-27T04:40:36.498Z,4.40
2018-09-27T04:43:03.811Z,4.30
2018-09-27T04:45:30.771Z,3.87
2018-09-27T04:47:57.726Z,4.30
2018-09-27T04:50:24.698Z,3.98
2018-09-27T04:52:51.705Z,4.10
2018-09-27T04:55:18.647Z,3.90
2018-09-27T04:57:45.659Z,4.20
2018-09-27T05:00:12.663Z,3.85
2018-09-27T05:02:40.273Z,3.80
2018-09-27T05:05:07.370Z,4.07
2018-09-27T05:07:34.362Z,4.00
2018-09-27T05:10:01.354Z,4.30
2018-09-27T05:12:28.373Z,4.42
2018-09-27T05:14:55.397Z,4.17
2018-09-27T05:17:22.392Z,4.40
2018-09-27T05:19:49.372Z,4.90
2018-09-27T05:22:16.386Z,4.45
2018-09-27T05:24:43.476Z,4.92
2018-09-27T05:27:10.519Z,5.75
2018-09-27T05:29:37.479Z,4.67
2018-09-27T05:32:04.885Z,4.20
2018-09-27T05:34:31.863Z,3.72
2018-09-27T05:36:58.840Z,4.42
2018-09-27T05:39:25.891Z,3.87
2018-09-27T05:41:52.831Z,4.10
2018-09-27T05:44:19.818Z,4.10
2018-09-27T05:46:46.825Z,4.17
2018-09-27T05:49:13.814Z,4.33
2018-09-27T05:51:40.936Z,4.00
2018-09-27T05:54:07.787Z,4.00
2018-09-27T05:56:34.787Z,4.10
2018-09-27T05:59:01.771Z,3.83
2018-09-27T06:01:28.780Z,3.87
2018-09-27T06:03:56.177Z,4.03
2018-09-27T06:06:23.182Z,4.58
2018-09-27T06:08:50.385Z,4.35
2018-09-27T06:11:17.457Z,4.40
2018-09-27T06:13:44.421Z,4.33
2018-09-27T06:16:11.447Z,4.30
2018-09-27T06:18:38.455Z,4.25
2018-09-27T06:21:05.592Z,4.65
2018-09-27T06:23:32.585Z,4.12
2018-09-27T06:25:59.629Z,4.42
2018-09-27T06:28:26.599Z,4.30
2018-09-27T06:30:53.582Z,4.10
2018-09-27T06:33:20.556Z,4.70
2018-09-27T06:35:47.567Z,4.50
2018-09-27T06:38:14.565Z,4.67
2018-09-27T06:40:41.550Z,4.50
2018-09-27T06:43:08.528Z,4.65
2018-09-27T06:45:35.658Z,4.22
2018-09-27T06:48:02.670Z,4.45
2018-09-27T06:52:56.668Z,4.05
2018-09-27T06:55:24.043Z,3.80
2018-09-27T06:57:50.657Z,4.37
2018-09-27T07:00:17.656Z,4.17
2018-09-27T07:02:44.749Z,3.98
2018-09-27T07:05:11.970Z,4.10
2018-09-27T07:07:38.972Z,3.92
2018-09-27T07:10:05.993Z,3.92
2018-09-27T07:12:33.117Z,4.33
2018-09-27T07:15:00.005Z,4.20
2018-09-27T07:17:26.982Z,4.00
2018-09-27T07:19:53.974Z,3.80
2018-09-27T07:22:20.968Z,4.20
2018-09-27T07:24:47.949Z,4.17
2018-09-27T07:27:14.948Z,4.20
2018-09-27T07:29:41.955Z,4.10
2018-09-27T07:32:08.974Z,4.33
2018-09-27T07:34:35.967Z,3.97
2018-09-27T07:37:02.985Z,3.95
2018-09-27T07:39:29.962Z,3.90
2018-09-27T07:41:56.941Z,3.80
2018-09-27T07:44:23.975Z,3.80
2018-09-27T07:46:50.957Z,3.77
2018-09-27T07:49:18.008Z,3.62
2018-09-27T07:51:45.118Z,3.52
2018-09-27T07:54:12.163Z,3.50
2018-09-27T07:56:39.161Z,3.80
2018-09-27T07:59:06.137Z,3.70
2018-09-27T08:01:33.164Z,3.58
2018-09-27T08:04:00.200Z,3.75
2018-09-27T08:06:28.285Z,3.70
2018-09-27T08:08:55.289Z,3.52
2018-09-27T08:11:22.850Z,3.80
2018-09-27T08:13:49.321Z,3.80
2018-09-27T08:16:16.317Z,3.50
2018-09-27T08:18:43.306Z,3.70
2018-09-27T08:21:10.433Z,3.83
2018-09-27T08:23:37.290Z,3.33
2018-09-27T08:26:04.289Z,3.50
2018-09-27T08:28:31.291Z,3.95
2018-09-27T08:30:58.383Z,3.62
2018-09-27T08:33:25.294Z,3.40
2018-09-27T08:35:52.289Z,3.30
2018-09-27T08:38:19.315Z,3.43
2018-09-27T08:40:46.253Z,3.57
2018-09-27T08:43:13.259Z,3.37
2018-09-27T08:45:40.321Z,3.37
2018-09-27T08:48:07.215Z,3.67
2018-09-27T08:50:34.213Z,3.72
2018-09-27T08:53:01.458Z,3.70
2018-09-27T08:55:28.465Z,3.50
2018-09-27T08:57:55.446Z,3.45
2018-09-27T09:00:22.418Z,3.30
2018-09-27T09:02:49.411Z,3.42
2018-09-27T09:05:16.409Z,3.42
2018-09-27T09:07:43.985Z,3.62
2018-09-27T09:10:11.038Z,3.50
2018-09-27T09:12:38.045Z,3.50
2018-09-27T09:15:05.040Z,3.50
2018-09-27T09:17:32.016Z,3.20
2018-09-27T09:19:59.025Z,3.50
2018-09-27T09:22:26.015Z,3.30
2018-09-27T09:24:53.008Z,3.40
2018-09-27T09:27:20.012Z,3.20
2018-09-27T09:29:47.062Z,3.30
2018-09-27T09:32:15.632Z,3.60
2018-09-27T09:34:42.661Z,3.52
2018-09-27T09:37:09.647Z,3.35
2018-09-27T09:39:36.625Z,3.33
2018-09-27T09:42:03.654Z,3.42
2018-09-27T09:44:30.630Z,3.30
2018-09-27T09:46:57.630Z,3.50
2018-09-27T09:49:24.702Z,3.80
2018-09-27T09:51:51.735Z,3.40
2018-09-27T09:54:18.738Z,3.40
2018-09-27T09:56:45.742Z,3.40
2018-09-27T09:59:12.753Z,3.45
2018-09-27T10:01:39.848Z,3.65
2018-09-27T10:04:06.846Z,3.42
2018-09-27T10:06:33.860Z,3.65
2018-09-27T10:09:01.091Z,3.70
2018-09-27T10:11:28.121Z,3.70
2018-09-27T10:13:55.129Z,3.70
2018-09-27T10:16:22.141Z,3.77
2018-09-27T10:18:49.154Z,3.65
2018-09-27T10:21:16.151Z,3.42
2018-09-27T10:23:43.149Z,3.60
2018-09-27T10:26:10.150Z,3.62
2018-09-27T10:28:37.146Z,3.70
2018-09-27T10:31:04.151Z,3.80
2018-09-27T10:33:31.196Z,3.30
2018-09-27T10:35:58.181Z,3.20
2018-09-27T10:38:25.978Z,3.50
2018-09-27T10:40:53.088Z,3.20
2018-09-27T10:43:20.042Z,3.15
2018-09-27T10:45:47.058Z,3.35
2018-09-27T10:48:14.026Z,3.33
2018-09-27T10:50:40.969Z,3.00
2018-09-27T10:53:08.462Z,3.22
2018-09-27T10:55:35.439Z,3.08
2018-09-27T10:58:02.384Z,3.10
2018-09-27T11:00:29.410Z,3.10
2018-09-27T11:02:56.393Z,3.00
2018-09-27T11:05:23.423Z,2.80
2018-09-27T11:10:30.687Z,2.92
2018-09-27T11:12:57.657Z,2.90
2018-09-27T11:15:24.608Z,2.83
2018-09-27T11:17:51.573Z,2.92
2018-09-27T11:20:18.555Z,2.83
2018-09-27T11:22:45.514Z,2.80
2018-09-27T11:25:12.508Z,3.20
2018-09-27T11:27:39.529Z,2.92
2018-09-27T11:30:28.834Z,2.90
2018-09-27T11:32:55.812Z,3.12
2018-09-27T11:35:22.758Z,3.07
2018-09-27T11:37:49.718Z,3.52
2018-09-27T11:40:16.674Z,3.02
2018-09-27T11:42:43.679Z,3.20
2018-09-27T11:45:10.573Z,3.58
2018-09-27T11:47:37.530Z,3.12
2018-09-27T11:50:04.743Z,3.10
2018-09-27T11:52:31.647Z,3.20
2018-09-27T11:54:58.682Z,3.80
2018-09-27T11:57:25.594Z,3.40
2018-09-27T11:59:52.631Z,3.67
2018-09-27T12:02:19.684Z,3.70
2018-09-27T12:04:46.631Z,3.90
2018-09-27T12:07:13.617Z,3.05
2018-09-27T12:09:40.586Z,3.65
2018-09-27T12:12:08.008Z,3.50
2018-09-27T12:14:35.014Z,3.20
2018-09-27T12:17:01.921Z,2.87
2018-09-27T12:19:29.225Z,3.10
2018-09-27T12:21:56.346Z,3.00
2018-09-27T12:24:23.278Z,2.70
2018-09-27T12:26:50.221Z,2.33
2018-09-27T12:29:17.191Z,2.50
2018-09-27T12:31:44.198Z,2.42
2018-09-27T12:34:11.287Z,2.47
2018-09-27T12:36:38.196Z,2.37
2018-09-27T12:39:06.870Z,2.30
2018-09-27T12:41:33.859Z,2.10
2018-09-27T12:44:00.782Z,1.90
2018-09-27T12:46:27.779Z,1.90
2018-09-27T12:48:54.741Z,1.92
2018-09-27T12:51:21.813Z,1.62
2018-09-27T12:53:48.654Z,1.70
2018-09-27T12:56:15.637Z,1.60
2018-09-27T12:58:42.701Z,1.80
2018-09-27T13:01:09.763Z,1.80
2018-09-27T13:03:36.649Z,1.60
2018-09-27T13:06:03.662Z,1.95
2018-09-27T13:08:30.647Z,1.77
2018-09-27T13:10:58.930Z,2.00
2018-09-27T13:13:28.463Z,1.70
2018-09-27T13:15:56.874Z,1.80
2018-09-27T13:18:24.342Z,1.60
2018-09-27T13:20:52.212Z,1.80
2018-09-27T13:23:19.698Z,1.90
2018-09-27T13:25:46.708Z,1.77
2018-09-27T13:28:13.610Z,1.90
2018-09-27T13:30:40.550Z,1.80
2018-09-27T13:33:07.639Z,1.70
2018-09-27T13:35:34.557Z,2.33
2018-09-27T13:38:01.519Z,2.50
2018-09-27T13:40:28.478Z,2.75
2018-09-27T13:42:55.453Z,3.53
2018-09-27T13:45:22.394Z,3.10
2018-09-27T13:47:49.372Z,3.20
2018-09-27T13:50:16.326Z,3.50
2018-09-27T13:52:43.290Z,3.33
2018-09-27T13:55:10.326Z,3.55
2018-09-27T13:57:37.229Z,3.05
2018-09-27T14:00:04.184Z,3.02
2018-09-27T14:02:31.203Z,2.77
2018-09-27T14:04:58.176Z,2.70
2018-09-27T14:07:25.122Z,2.23
2018-09-27T14:09:52.060Z,2.77
2018-09-27T14:12:19.038Z,2.50
2018-09-27T14:14:46.583Z,2.45
2018-09-27T14:17:13.525Z,2.00
2018-09-27T14:19:40.500Z,2.52
2018-09-27T14:22:07.464Z,2.27
2018-09-27T14:24:34.412Z,2.30
2018-09-27T14:27:01.378Z,2.40
2018-09-27T14:29:28.335Z,1.95
2018-09-27T14:31:55.327Z,2.20
2018-09-27T14:34:22.325Z,2.10
2018-09-27T14:36:49.289Z,2.20
2018-09-27T14:39:16.304Z,2.27
2018-09-27T14:41:43.294Z,2.37
2018-09-27T14:44:10.202Z,2.12
2018-09-27T14:46:37.181Z,1.95
2018-09-27T14:49:04.321Z,2.00
2018-09-27T14:51:31.274Z,2.10
2018-09-27T14:53:58.417Z,2.10
2018-09-27T14:56:25.412Z,2.12
2018-09-27T14:58:52.398Z,2.22
2018-09-27T15:01:19.373Z,2.05
2018-09-27T15:03:46.356Z,2.22
2018-09-27T15:06:13.346Z,2.20
2018-09-27T15:08:40.465Z,1.82
2018-09-27T15:11:07.434Z,2.10
2018-09-27T15:13:34.690Z,2.20
2018-09-27T15:16:02.143Z,2.10
2018-09-27T15:18:29.307Z,2.20
2018-09-27T15:20:56.343Z,2.17
2018-09-27T15:23:23.572Z,2.10
2018-09-27T15:25:50.658Z,2.17
2018-09-27T15:28:17.730Z,2.20
2018-09-27T15:30:44.907Z,1.90
2018-09-27T15:33:12.035Z,2.20
2018-09-27T15:35:39.170Z,2.15
2018-09-27T15:38:06.231Z,1.90
2018-09-27T15:40:33.299Z,2.30
2018-09-27T15:43:00.359Z,1.90
2018-09-27T15:45:27.470Z,2.30
2018-09-27T15:47:54.402Z,2.10
2018-09-27T15:50:21.451Z,2.15
2018-09-27T15:52:48.521Z,2.20
2018-09-27T15:55:15.474Z,2.00
2018-09-27T15:57:42.481Z,2.30
2018-09-27T16:00:09.639Z,2.10
2018-09-27T16:02:36.731Z,2.12
2018-09-27T16:05:03.751Z,2.22
2018-09-27T16:07:30.702Z,1.98
2018-09-27T16:09:57.727Z,3.70
2018-09-27T16:12:24.674Z,3.60
2018-09-27T16:14:51.864Z,3.25
2018-09-27T16:17:18.929Z,3.50
2018-09-27T16:19:46.027Z,3.55
2018-09-27T16:22:13.069Z,3.12
2018-09-27T16:24:40.236Z,2.58
2018-09-27T16:27:07.197Z,2.72
2018-09-27T16:29:34.200Z,2.50
2018-09-27T16:32:01.183Z,2.77
2018-09-27T16:34:28.217Z,2.40
2018-09-27T16:36:55.165Z,2.50
2018-09-27T16:39:22.162Z,2.33
2018-09-27T16:41:49.110Z,2.30
2018-09-27T16:44:16.069Z,2.30
2018-09-27T16:46:43.658Z,3.58
2018-09-27T16:49:10.767Z,2.80
2018-09-27T16:51:37.684Z,2.67
2018-09-27T16:54:10.343Z,2.52
2018-09-27T16:56:37.388Z,3.53
2018-09-27T16:59:04.347Z,22.75
2018-09-27T17:01:31.358Z,41.83
2018-09-27T17:03:58.363Z,27.02
2018-09-27T17:06:25.341Z,10.18
2018-09-27T17:08:52.315Z,11.70
2018-09-27T17:11:19.629Z,9.38
2018-09-27T17:13:46.594Z,5.85
2018-09-27T17:16:13.567Z,4.17
2018-09-27T17:18:40.871Z,4.95
2018-09-27T17:21:07.758Z,6.40
2018-09-27T17:23:34.986Z,4.90
2018-09-27T17:26:01.914Z,3.20
2018-09-27T17:28:28.902Z,3.22
2018-09-27T17:30:55.916Z,3.10
2018-09-27T17:33:22.887Z,2.80
2018-09-27T17:35:50.203Z,2.80
2018-09-27T17:38:18.113Z,2.90
2018-09-27T17:40:45.264Z,2.63
2018-09-27T17:43:12.265Z,2.62
2018-09-27T17:45:39.327Z,2.50
2018-09-27T17:48:06.372Z,3.00
2018-09-27T17:50:33.478Z,2.90
2018-09-27T17:53:00.661Z,2.80
2018-09-27T17:55:27.838Z,3.10
2018-09-27T17:57:54.881Z,5.58
2018-09-27T18:00:21.935Z,3.87
2018-09-27T18:02:48.928Z,5.97
2018-09-27T18:05:19.348Z,8.03
2018-09-27T18:07:43.045Z,6.08
2018-09-27T18:10:10.013Z,6.13
2018-09-27T18:12:36.962Z,5.00
2018-09-27T18:15:04.150Z,4.00
2018-09-27T18:17:31.159Z,4.00
2018-09-27T18:19:59.008Z,3.60
2018-09-27T18:22:26.073Z,4.37
2018-09-27T18:24:53.022Z,4.70
2018-09-27T18:27:20.040Z,4.15
2018-09-27T18:29:46.995Z,3.40
2018-09-27T18:32:13.946Z,4.37
2018-09-27T18:34:41.012Z,4.25
2018-09-27T18:37:07.989Z,5.47
2018-09-27T18:39:34.976Z,8.63
2018-09-27T18:42:01.922Z,5.97
2018-09-27T18:44:28.911Z,4.85
2018-09-27T18:46:55.876Z,5.50
2018-09-27T18:49:22.825Z,4.80
2018-09-27T18:51:49.792Z,4.33
2018-09-27T18:54:16.775Z,3.70
2018-09-27T18:56:43.729Z,3.60
2018-09-27T18:59:10.734Z,4.95
2018-09-27T19:01:38.031Z,7.60
2018-09-27T19:04:05.244Z,8.13
2018-09-27T19:06:32.247Z,7.62
2018-09-27T19:08:59.193Z,6.35
2018-09-27T19:11:26.170Z,5.17
2018-09-27T19:13:53.161Z,4.30
2018-09-27T19:16:20.216Z,3.50
2018-09-27T19:18:47.207Z,3.60
2018-09-27T19:21:14.477Z,3.95
2018-09-27T19:23:41.507Z,4.17
2018-09-27T19:26:08.556Z,3.67
2018-09-27T19:28:35.511Z,3.80
2018-09-27T19:31:02.546Z,3.75
2018-09-27T19:33:29.529Z,3.60
2018-09-27T19:35:56.531Z,3.42
2018-09-27T19:38:23.505Z,3.60
2018-09-27T19:40:50.452Z,3.60
2018-09-27T19:43:17.429Z,3.50
2018-09-27T19:45:44.395Z,3.67
2018-09-27T19:48:11.345Z,3.50
2018-09-27T19:50:38.350Z,3.30
2018-09-27T19:53:05.446Z,3.60
2018-09-27T19:55:32.539Z,3.60
2018-09-27T19:57:59.571Z,3.60
2018-09-27T20:00:26.557Z,3.95
2018-09-27T20:02:53.519Z,3.87
2018-09-27T20:05:20.513Z,4.03
2018-09-27T20:07:47.461Z,4.00
2018-09-27T20:10:14.485Z,6.30
2018-09-27T20:12:41.412Z,5.75
2018-09-27T20:15:08.386Z,4.92
2018-09-27T20:17:35.362Z,5.53
2018-09-27T20:20:02.330Z,4.23
2018-09-27T20:22:32.080Z,4.17
2018-09-27T20:24:59.049Z,4.17
2018-09-27T20:27:26.066Z,3.80
2018-09-27T20:29:53.038Z,4.25
2018-09-27T20:32:20.028Z,3.77
2018-09-27T20:34:47.062Z,4.00
2018-09-27T20:37:14.006Z,3.98
2018-09-27T20:39:41.221Z,4.00
2018-09-27T20:42:08.173Z,4.70
2018-09-27T20:44:35.149Z,4.20
2018-09-27T20:47:02.096Z,3.70
2018-09-27T20:49:29.093Z,3.75
2018-09-27T20:51:56.050Z,3.90
2018-09-27T20:54:23.006Z,3.75
2018-09-27T20:56:49.992Z,4.05
2018-09-27T20:59:17.020Z,3.95
2018-09-27T21:01:43.974Z,3.70
2018-09-27T21:04:11.020Z,3.92
2018-09-27T21:06:38.067Z,3.95
2018-09-27T21:09:07.555Z,3.77
2018-09-27T21:11:34.540Z,3.65
2018-09-27T21:14:01.566Z,3.80
2018-09-27T21:16:28.505Z,3.80
2018-09-27T21:18:55.528Z,4.00
2018-09-27T21:21:22.518Z,3.60
2018-09-27T21:23:52.845Z,3.83
2018-09-27T21:26:20.111Z,3.55
2018-09-27T21:28:47.104Z,3.83
2018-09-27T21:31:14.070Z,3.65
2018-09-27T21:33:41.739Z,3.70
2018-09-27T21:36:08.783Z,4.17
2018-09-27T21:38:35.940Z,3.67
2018-09-27T21:41:02.935Z,3.87
2018-09-27T21:43:29.902Z,3.80
2018-09-27T21:45:56.871Z,3.80
2018-09-27T21:48:23.842Z,3.75
2018-09-27T21:50:51.337Z,3.47
2018-09-27T21:53:18.272Z,3.62
2018-09-27T21:55:48.960Z,3.77
2018-09-27T21:58:15.905Z,3.90
2018-09-27T22:00:42.925Z,3.55
2018-09-27T22:03:09.901Z,3.65
2018-09-27T22:05:36.932Z,3.58
2018-09-27T22:08:03.837Z,3.60
2018-09-27T22:10:30.829Z,3.40
2018-09-27T22:12:57.818Z,3.67
2018-09-27T22:15:24.765Z,3.60
2018-09-27T22:17:51.766Z,3.92
2018-09-27T22:20:18.718Z,3.50
2018-09-27T22:22:45.682Z,3.30
2018-09-27T22:25:13.061Z,3.67
2018-09-27T22:27:40.008Z,3.77
2018-09-27T22:30:07.466Z,3.80
2018-09-27T22:32:34.441Z,3.52
2018-09-27T22:35:01.398Z,3.67
2018-09-27T22:37:28.410Z,3.87
2018-09-27T22:39:55.402Z,3.92
2018-09-27T22:42:22.374Z,3.40
2018-09-27T22:44:49.313Z,3.77
2018-09-27T22:47:16.310Z,3.70
2018-09-27T22:49:43.278Z,3.90
2018-09-27T22:52:10.237Z,3.72
2018-09-27T22:54:37.189Z,3.60
2018-09-27T22:57:04.144Z,3.90
2018-09-27T22:59:31.103Z,3.70
2018-09-27T23:01:58.074Z,3.70
2018-09-27T23:04:25.028Z,3.42
2018-09-27T23:06:51.974Z,3.50
2018-09-27T23:09:18.930Z,3.80
2018-09-27T23:11:45.897Z,3.22
2018-09-27T23:14:12.875Z,3.37
2018-09-27T23:16:39.837Z,3.12
2018-09-27T23:19:06.817Z,3.52
2018-09-27T23:21:33.896Z,3.25
2018-09-27T23:24:00.870Z,3.40
2018-09-27T23:26:28.255Z,3.62
2018-09-27T23:28:55.209Z,3.25
2018-09-27T23:31:22.186Z,3.58
2018-09-27T23:33:49.149Z,3.55
2018-09-27T23:36:16.107Z,3.52
2018-09-27T23:38:43.081Z,3.40
2018-09-27T23:41:10.034Z,3.37
2018-09-27T23:43:37.082Z,3.50
2018-09-27T23:46:04.058Z,3.47
2018-09-27T23:48:31.010Z,3.30
2018-09-27T23:50:57.978Z,3.40
2018-09-27T23:53:24.958Z,3.40
2018-09-27T23:55:52.027Z,3.50
2018-09-27T23:58:18.976Z,3.37
